Ririe, ID

4:22 AM MDT on October 25, 2014 (GMT -0600)
Garfield Area | Change Station
CLOSE
Current Station
Personal Weather Station
Location: Rigby, ID
Elevation: 4820 ft
Nearby Weather Stations
Active Advisory: Special Statement

Elev 4820 ft 43.64 °N, 111.96 °W | Updated 1 minute ago

Clear
Clear
39.1 °F
Feels Like 39 °F
N
2.0
Wind Variable Wind from NNE
Gusts 4.0 mph

Today
High -- | Low -- °F
--% Chance of Precip.
Yesterday
High -- | Low -- °F
Precip. -- in
7:53 AM 6:27 PM
New Moon, 2% visible
Pressure 30.04 in
Visibility 10.0 miles
Clouds Clear
Windchill 39 °F
Dew Point 30 °F
Humidity 71%
Rainfall 0.00 in
Snow Depth Not available.
UV 0 out of 12
Pollen 2.70 out of 12
PM2.5 Good
Flu Activity No Activity
METAR KRXE 250953Z AUTO 05005KT 10SM CLR 03/M02 A3009 RMK AO2 SLP172 T00281017

More Conditions Fewer Conditions

Pressure 30.04 in
Visibility 10.0 miles
Clouds Clear
Windchill 39 °F
Dew Point 30 °F
Humidity 71%
Rainfall 0.00 in
Snow Depth Not available.
UV 0 out of 12
Pollen 2.70 out of 12
PM2.5 Good
Flu Activity No Activity
METAR KRXE 250953Z AUTO 05005KT 10SM CLR 03/M02 A3009 RMK AO2 SLP172 T00281017

More Conditions Fewer Conditions

10-Day Weather Forecast

Almanac

Astronomy

Oct. 25, 2014 Rise Set
Actual Time 7:53 AM MDT 6:27 PM MDT
Civil Twilight 7:23 AM MDT 6:56 PM MDT
Nautical Twilight 6:50 AM MDT 7:30 PM MDT
Astronomical Twilight 6:17 AM MDT 8:03 PM MDT
Moon 9:38 AM MDT 7:50 PM MDT
Length of Visible Light 11h 32m
Length of Day
10h 33m
Tomorrow will be 2m 45s shorter.
New Moon, 2% of the Moon is Illuminated
Today
New Moon
Oct 30
First Quarter
Nov 6
Full
Nov 14
Last Quarter
Nov 22
New

Today's Extremes

State Highs State Lows

Community

WunderPhotos

Upload Photos

1,764,806 photos uploaded!

Nearby

Air Quality

  Air Quality AQ Index Pollutant
Yesterday Good
PM2.5
Current Good
PM2.5
Saturday Good
PM2.5
Sunday Good
PM2.5
Monday Good
PM2.5

Snow Depth

Station Depth Elevation
Pine Creek Pass 0 in 6720 ft
Sheep Mountain 0 in 6570 ft
Somsen Ranch 1 in 6800 ft
Island Park 0 in 6290 ft
Crab Creek 0 in 6860 ft

Earthquake Activity

City Distance Mag. Time & Date
No recent earthquake activity has been reported nearby.
Minimum magnitude displayed is 2.5.

Coastal Water Temperatures

Place Temperature
No Stations Reporting

Nearby Weather Stations